地図

経路データ

SID SEASON NUMBER BASIN SUBBASIN NAME ISO_TIME NATURE LAT LON WMO_WIND WMO_PRES WMO_AGENCY TRACK_TYPE DIST2LAND LANDFALL IFLAG USA_AGENCY USA_ATCF_ID USA_LAT USA_LON USA_RECORD USA_STATUS USA_WIND USA_PRES USA_SSHS USA_R34_NE USA_R34_SE USA_R34_SW USA_R34_NW USA_R50_NE USA_R50_SE USA_R50_SW USA_R50_NW USA_R64_NE USA_R64_SE USA_R64_SW USA_R64_NW USA_POCI USA_ROCI USA_RMW USA_EYE TOKYO_LAT TOKYO_LON TOKYO_GRADE TOKYO_WIND TOKYO_PRES TOKYO_R50_DIR TOKYO_R50_LONG TOKYO_R50_SHORT TOKYO_R30_DIR TOKYO_R30_LONG TOKYO_R30_SHORT TOKYO_LAND CMA_LAT CMA_LON CMA_CAT CMA_WIND CMA_PRES HKO_LAT HKO_LON HKO_CAT HKO_WIND HKO_PRES NEWDELHI_LAT NEWDELHI_LON NEWDELHI_GRADE NEWDELHI_WIND NEWDELHI_PRES NEWDELHI_CI NEWDELHI_DP NEWDELHI_POCI REUNION_LAT REUNION_LON REUNION_TYPE REUNION_WIND REUNION_PRES REUNION_TNUM REUNION_CI REUNION_RMW REUNION_R34_NE REUNION_R34_SE REUNION_R34_SW REUNION_R34_NW REUNION_R50_NE REUNION_R50_SE REUNION_R50_SW REUNION_R50_NW REUNION_R64_NE REUNION_R64_SE REUNION_R64_SW REUNION_R64_NW BOM_LAT BOM_LON BOM_TYPE BOM_WIND BOM_PRES BOM_TNUM BOM_CI BOM_RMW BOM_R34_NE BOM_R34_SE BOM_R34_SW BOM_R34_NW BOM_R50_NE BOM_R50_SE BOM_R50_SW BOM_R50_NW BOM_R64_NE BOM_R64_SE BOM_R64_SW BOM_R64_NW BOM_ROCI BOM_POCI BOM_EYE BOM_POS_METHOD BOM_PRES_METHOD NADI_LAT NADI_LON NADI_CAT NADI_WIND NADI_PRES WELLINGTON_LAT WELLINGTON_LON WELLINGTON_WIND WELLINGTON_PRES DS824_LAT DS824_LON DS824_STAGE DS824_WIND DS824_PRES TD9636_LAT TD9636_LON TD9636_STAGE TD9636_WIND TD9636_PRES TD9635_LAT TD9635_LON TD9635_WIND TD9635_PRES TD9635_ROCI NEUMANN_LAT NEUMANN_LON NEUMANN_CLASS NEUMANN_WIND NEUMANN_PRES MLC_LAT MLC_LON MLC_CLASS MLC_WIND MLC_PRES USA_GUST BOM_GUST BOM_GUST_PER REUNION_GUST REUNION_GUST_PER USA_SEAHGT USA_SEARAD_NE USA_SEARAD_SE USA_SEARAD_SW USA_SEARAD_NW STORM_SPEED STORM_DIR
1919246N16299 1919 33 NA CS NOT_NAMED 1919-09-02 12:00:00 TS 16.0000 -61.0000 25 hurdat_atl main 547 485 O_____________ hurdat_atl AL021919 16.0000 -61.0000 TD 25 -1 13 283
1919246N16299 1919 33 NA CS NOT_NAMED 1919-09-02 15:00:00 TS 16.1404 -61.6474 main 485 409 P_____________ AL021919 16.1404 -61.6474 TD 27 -1 13 284
1919246N16299 1919 33 NA CS NOT_NAMED 1919-09-02 18:00:00 TS 16.3000 -62.3000 30 hurdat_atl main 409 343 O_____________ hurdat_atl AL021919 16.3000 -62.3000 TD 30 -1 13 286
1919246N16299 1919 33 NA CS NOT_NAMED 1919-09-02 21:00:00 TS 16.4924 -62.9575 main 335 270 P_____________ AL021919 16.4924 -62.9575 TD 30 -1 13 288
1919246N16299 1919 33 NA CS NOT_NAMED 1919-09-03 00:00:00 TS 16.7000 -63.6000 30 hurdat_atl main 270 207 O_____________ hurdat_atl AL021919 16.7000 -63.6000 TD 30 -1 13 289
1919246N16299 1919 33 NA CS NOT_NAMED 1919-09-03 03:00:00 TS 16.8998 -64.2076 main 207 146 P_____________ AL021919 16.8998 -64.2076 TD 32 -1 12 289
1919246N16299 1919 33 NA CS NOT_NAMED 1919-09-03 06:00:00 TS 17.1000 -64.8000 35 hurdat_atl main 146 89 O_____________ hurdat_atl AL021919 17.1000 -64.8000 TS 35 0 12 289
1919246N16299 1919 33 NA CS NOT_NAMED 1919-09-03 09:00:00 TS 17.2924 -65.4151 main 89 49 P_____________ AL021919 17.2924 -65.4151 TS 37 0 12 289
1919246N16299 1919 33 NA CS NOT_NAMED 1919-09-03 12:00:00 TS 17.5000 -66.0000 40 hurdat_atl main 49 24 O_____________ hurdat_atl AL021919 17.5000 -66.0000 TS 40 0 11 293
1919246N16299 1919 33 NA CS NOT_NAMED 1919-09-03 15:00:00 TS 17.7348 -66.5152 main 33 0 P_____________ AL021919 17.7348 -66.5152 TS 42 0 11 298
1919246N16299 1919 33 NA NA NOT_NAMED 1919-09-03 18:00:00 TS 18.0000 -67.0000 45 hurdat_atl main 0 0 O_____________ hurdat_atl AL021919 18.0000 -67.0000 TS 45 0 11 301
1919246N16299 1919 33 NA CS NOT_NAMED 1919-09-03 21:00:00 TS 18.2999 -67.5000 main 23 23 P_____________ AL021919 18.2999 -67.5000 TS 45 0 11 302
1919246N16299 1919 33 NA NA NOT_NAMED 1919-09-04 00:00:00 TS 18.6000 -68.0000 45 hurdat_atl main 31 11 O_____________ hurdat_atl AL021919 18.6000 -68.0000 TS 45 0 11 301
1919246N16299 1919 33 NA NA NOT_NAMED 1919-09-04 03:00:00 TS 18.8649 -68.5001 main 15 10 P_____________ AL021919 18.8649 -68.5001 TS 42 0 11 298
1919246N16299 1919 33 NA NA NOT_NAMED 1919-09-04 06:00:00 TS 19.1000 -69.0000 40 hurdat_atl main 15 0 O_____________ hurdat_atl AL021919 19.1000 -69.0000 TS 40 0 11 295
1919246N16299 1919 33 NA NA NOT_NAMED 1919-09-04 09:00:00 TS 19.3150 -69.5151 main 11 0 P_____________ AL021919 19.3150 -69.5151 TS 37 0 10 293
1919246N16299 1919 33 NA NA NOT_NAMED 1919-09-04 12:00:00 TS 19.5000 -70.0000 35 hurdat_atl main 0 0 O_____________ hurdat_atl AL021919 19.5000 -70.0000 TS 35 0 9 292
1919246N16299 1919 33 NA NA NOT_NAMED 1919-09-04 15:00:00 TS 19.6648 -70.4151 main 0 0 P_____________ AL021919 19.6648 -70.4151 TS 35 0 8 292
1919246N16299 1919 33 NA NA NOT_NAMED 1919-09-04 18:00:00 TS 19.8000 -70.8000 35 hurdat_atl main 0 0 O_____________ hurdat_atl AL021919 19.8000 -70.8000 TS 35 0 8 288
1919246N16299 1919 33 NA NA NOT_NAMED 1919-09-04 21:00:00 TS 19.9075 -71.2151 main 11 11 P_____________ AL021919 19.9075 -71.2151 TS 35 0 8 285
1919246N16299 1919 33 NA NA NOT_NAMED 1919-09-05 00:00:00 TS 20.0000 -71.6000 35 hurdat_atl main 22 22 O_____________ hurdat_atl AL021919 20.0000 -71.6000 TS 35 0 7 285
1919246N16299 1919 33 NA NA NOT_NAMED 1919-09-05 03:00:00 TS 20.0925 -71.9375 main 35 35 P_____________ AL021919 20.0925 -71.9375 TS 35 0 6 290
1919246N16299 1919 33 NA NA NOT_NAMED 1919-09-05 06:00:00 TS 20.2000 -72.2000 35 hurdat_atl main 49 45 O_____________ hurdat_atl AL021919 20.2000 -72.2000 TS 35 0 5 300
1919246N16299 1919 33 NA NA NOT_NAMED 1919-09-05 09:00:00 TS 20.3349 -72.3875 main 49 49 P_____________ AL021919 20.3349 -72.3875 TS 35 0 4 317
1919246N16299 1919 33 NA NA NOT_NAMED 1919-09-05 12:00:00 TS 20.5000 -72.5000 35 hurdat_atl main 67 61 O_____________ hurdat_atl AL021919 20.5000 -72.5000 TS 35 0 4 334
1919246N16299 1919 33 NA NA NOT_NAMED 1919-09-05 15:00:00 TS 20.6850 -72.5725 main 61 53 P_____________ AL021919 20.6850 -72.5725 TS 35 0 4 347
1919246N16299 1919 33 NA NA NOT_NAMED 1919-09-05 18:00:00 TS 20.9000 -72.6000 35 hurdat_atl main 53 42 O_____________ hurdat_atl AL021919 20.9000 -72.6000 TS 35 0 5 0
1919246N16299 1919 33 NA NA NOT_NAMED 1919-09-05 21:00:00 TS 21.1500 -72.6001 main 41 41 P_____________ AL021919 21.1500 -72.6001 TS 37 0 5 2
1919246N16299 1919 33 NA NA NOT_NAMED 1919-09-06 00:00:00 TS 21.4000 -72.6000 40 hurdat_atl main 47 47 O_____________ hurdat_atl AL021919 21.4000 -72.6000 TS 40 0 5 354
1919246N16299 1919 33 NA NA NOT_NAMED 1919-09-06 03:00:00 TS 21.6075 -72.6425 main 60 54 P_____________ AL021919 21.6075 -72.6425 TS 42 0 4 347
1919246N16299 1919 33 NA NA NOT_NAMED 1919-09-06 06:00:00 TS 21.8000 -72.7000 45 hurdat_atl main 73 73 O_____________ hurdat_atl AL021919 21.8000 -72.7000 TS 45 0 4 348
1919246N16299 1919 33 NA NA NOT_NAMED 1919-09-06 09:00:00 TS 22.0075 -72.7351 main 94 94 P_____________ AL021919 22.0075 -72.7351 TS 47 0 4 348
1919246N16299 1919 33 NA NA NOT_NAMED 1919-09-06 12:00:00 TS 22.2000 -72.8000 50 hurdat_atl main 113 113 O_____________ hurdat_atl AL021919 22.2000 -72.8000 TS 50 0 4 333
1919246N16299 1919 33 NA NA NOT_NAMED 1919-09-06 15:00:00 TS 22.3575 -72.9275 main 134 134 P_____________ AL021919 22.3575 -72.9275 TS 52 0 4 317
1919246N16299 1919 33 NA NA NOT_NAMED 1919-09-06 18:00:00 TS 22.5000 -73.1000 55 hurdat_atl main 145 145 O_____________ hurdat_atl AL021919 22.5000 -73.1000 TS 55 0 4 312
1919246N16299 1919 33 NA NA NOT_NAMED 1919-09-06 21:00:00 TS 22.6575 -73.2850 main 168 168 P_____________ AL021919 22.6575 -73.2850 TS 57 0 5 309
1919246N16299 1919 33 NA NA NOT_NAMED 1919-09-07 00:00:00 TS 22.8000 -73.5000 60 hurdat_atl main 181 181 O_____________ hurdat_atl AL021919 22.8000 -73.5000 TS 60 0 5 301
1919246N16299 1919 33 NA NA NOT_NAMED 1919-09-07 03:00:00 TS 22.9075 -73.7426 main 196 196 P_____________ AL021919 22.9075 -73.7426 TS 62 0 5 293
1919246N16299 1919 33 NA NA NOT_NAMED 1919-09-07 06:00:00 TS 23.0000 -74.0000 65 hurdat_atl main 214 214 O_____________ hurdat_atl AL021919 23.0000 -74.0000 HU 65 1 5 293
1919246N16299 1919 33 NA NA NOT_NAMED 1919-09-07 09:00:00 TS 23.0999 -74.2426 main 229 229 P_____________ AL021919 23.0999 -74.2426 HU 70 1 5 293
1919246N16299 1919 33 NA NA NOT_NAMED 1919-09-07 12:00:00 TS 23.2000 -74.5000 75 hurdat_atl main 248 248 O_____________ hurdat_atl AL021919 23.2000 -74.5000 HU 75 1 5 293
1919246N16299 1919 33 NA NA NOT_NAMED 1919-09-07 15:00:00 TS 23.3074 -74.7850 main 270 267 P_____________ AL021919 23.3074 -74.7850 HU 80 1 6 290
1919246N16299 1919 33 NA NA NOT_NAMED 1919-09-07 18:00:00 TS 23.4000 -75.1000 85 hurdat_atl main 270 258 O_____________ hurdat_atl AL021919 23.4000 -75.1000 HU 85 2 6 284
1919246N16299 1919 33 NA NA NOT_NAMED 1919-09-07 21:00:00 TS 23.4575 -75.4426 main 258 222 P_____________ AL021919 23.4575 -75.4426 HU 90 2 7 279
1919246N16299 1919 33 NA NA NOT_NAMED 1919-09-08 00:00:00 TS 23.5000 -75.8000 95 hurdat_atl main 222 197 O_____________ hurdat_atl AL021919 23.5000 -75.8000 HU 95 2 6 278
1919246N16299 1919 33 NA NA NOT_NAMED 1919-09-08 03:00:00 TS 23.5499 -76.1425 main 197 157 P_____________ AL021919 23.5499 -76.1425 HU 95 2 6 279
1919246N16299 1919 33 NA NA NOT_NAMED 1919-09-08 06:00:00 TS 23.6000 -76.5000 95 hurdat_atl main 157 128 O_____________ hurdat_atl AL021919 23.6000 -76.5000 HU 95 2 7 278
1919246N16299 1919 33 NA NA NOT_NAMED 1919-09-08 09:00:00 TS 23.6500 -76.8925 main 128 90 P_____________ AL021919 23.6500 -76.8925 HU 97 3 7 278
1919246N16299 1919 33 NA NA NOT_NAMED 1919-09-08 12:00:00 TS 23.7000 -77.3000 100 hurdat_atl main 90 63 O_____________ hurdat_atl AL021919 23.7000 -77.3000 HU 100 3 7 278
1919246N16299 1919 33 NA NA NOT_NAMED 1919-09-08 15:00:00 TS 23.7499 -77.7000 main 63 44 P_____________ AL021919 23.7499 -77.7000 HU 102 3 7 278
1919246N16299 1919 33 NA NA NOT_NAMED 1919-09-08 18:00:00 TS 23.8000 -78.1000 105 hurdat_atl main 45 45 O_____________ hurdat_atl AL021919 23.8000 -78.1000 HU 105 3 7 278
1919246N16299 1919 33 NA NA NOT_NAMED 1919-09-08 21:00:00 TS 23.8499 -78.5000 main 67 60 P_____________ AL021919 23.8499 -78.5000 HU 107 3 7 278
1919246N16299 1919 33 NA NA NOT_NAMED 1919-09-09 00:00:00 TS 23.9000 -78.9000 110 hurdat_atl main 88 88 O_____________ hurdat_atl AL021919 23.9000 -78.9000 HU 110 3 7 278
1919246N16299 1919 33 NA NA NOT_NAMED 1919-09-09 03:00:00 TS 23.9574 -79.3000 main 105 105 P_____________ AL021919 23.9574 -79.3000 HU 112 3 7 278
1919246N16299 1919 33 NA NA NOT_NAMED 1919-09-09 06:00:00 TS 24.0000 -79.7000 115 hurdat_atl main 126 118 O_____________ hurdat_atl AL021919 24.0000 -79.7000 HU 115 4 7 273
1919246N16299 1919 33 NA NA NOT_NAMED 1919-09-09 09:00:00 TS 23.9999 -80.1001 main 118 111 P_____________ AL021919 23.9999 -80.1001 HU 117 4 7 270
1919246N16299 1919 33 NA NA NOT_NAMED 1919-09-09 12:00:00 TS 24.0000 -80.5000 120 hurdat_atl main 111 108 O_____________ hurdat_atl AL021919 24.0000 -80.5000 HU 120 4 7 273
1919246N16299 1919 33 NA NA NOT_NAMED 1919-09-09 15:00:00 TS 24.0349 -80.9000 main 108 105 P_____________ AL021919 24.0349 -80.9000 HU 122 4 7 278
1919246N16299 1919 33 NA NA NOT_NAMED 1919-09-09 18:00:00 TS 24.1000 -81.3000 125 hurdat_atl main 111 111 O_____________ hurdat_atl AL021919 24.1000 -81.3000 HU 125 4 8 282
1919246N16299 1919 33 NA NA NOT_NAMED 1919-09-09 21:00:00 TS 24.1849 -81.7075 main 117 117 P_____________ AL021919 24.1849 -81.7075 HU 127 4 8 285
1919246N16299 1919 33 NA NA NOT_NAMED 1919-09-10 00:00:00 TS 24.3000 -82.1000 130 hurdat_atl main 134 134 O_____________ hurdat_atl AL021919 24.3000 -82.1000 HU 130 4 8 293
1919246N16299 1919 33 NA NA NOT_NAMED 1919-09-10 03:00:00 TS 24.4845 -82.4694 main 152 152 P_____________ AL021919 24.4845 -82.4694 HU 130 4 7 295
1919246N16299 1919 33 NA GM NOT_NAMED 1919-09-10 06:00:00 TS 24.6000 -82.8000 130 927 hurdat_atl main 170 170 O_____________ hurdat_atl AL021919 24.6000 -82.8000 HU 130 927 4 6 286
1919246N16299 1919 33 NA GM NOT_NAMED 1919-09-10 07:00:00 TS 24.6000 -82.9000 130 927 hurdat_atl main 172 172 O_____________ hurdat_atl AL021919 24.6000 -82.9000 L HU 130 927 4 6 282
1919246N16299 1919 33 NA GM NOT_NAMED 1919-09-10 09:00:00 TS 24.6568 -83.0999 main 188 188 P_____________ AL021919 24.6568 -83.0999 HU 130 4 6 294
1919246N16299 1919 33 NA GM NOT_NAMED 1919-09-10 12:00:00 TS 24.8000 -83.4000 130 hurdat_atl main 210 210 O_____________ hurdat_atl AL021919 24.8000 -83.4000 HU 130 4 6 290
1919246N16299 1919 33 NA GM NOT_NAMED 1919-09-10 15:00:00 TS 24.8615 -83.7074 main 225 225 P_____________ AL021919 24.8615 -83.7074 HU 130 4 6 280
1919246N16299 1919 33 NA GM NOT_NAMED 1919-09-10 18:00:00 TS 24.9000 -84.0000 130 hurdat_atl main 231 231 O_____________ hurdat_atl AL021919 24.9000 -84.0000 HU 130 4 5 281
1919246N16299 1919 33 NA GM NOT_NAMED 1919-09-10 21:00:00 TS 24.9574 -84.2575 main 251 251 P_____________ AL021919 24.9574 -84.2575 HU 130 4 5 282
1919246N16299 1919 33 NA GM NOT_NAMED 1919-09-11 00:00:00 TS 25.0000 -84.5000 130 hurdat_atl main 258 258 O_____________ hurdat_atl AL021919 25.0000 -84.5000 HU 130 4 4 275
1919246N16299 1919 33 NA GM NOT_NAMED 1919-09-11 03:00:00 TS 25.0000 -84.7501 main 269 269 P_____________ AL021919 25.0000 -84.7501 HU 130 4 5 270
1919246N16299 1919 33 NA GM NOT_NAMED 1919-09-11 06:00:00 TS 25.0000 -85.0000 130 hurdat_atl main 276 276 O_____________ hurdat_atl AL021919 25.0000 -85.0000 HU 130 4 4 274
1919246N16299 1919 33 NA GM NOT_NAMED 1919-09-11 09:00:00 TS 25.0349 -85.2425 main 284 284 P_____________ AL021919 25.0349 -85.2425 HU 130 4 5 282
1919246N16299 1919 33 NA GM NOT_NAMED 1919-09-11 12:00:00 TS 25.1000 -85.5000 130 hurdat_atl main 308 308 O_____________ hurdat_atl AL021919 25.1000 -85.5000 HU 130 4 5 287
1919246N16299 1919 33 NA GM NOT_NAMED 1919-09-11 15:00:00 TS 25.1850 -85.7925 main 333 333 P_____________ AL021919 25.1850 -85.7925 HU 127 4 6 290
1919246N16299 1919 33 NA GM NOT_NAMED 1919-09-11 18:00:00 TS 25.3000 -86.1000 125 hurdat_atl main 360 360 O_____________ hurdat_atl AL021919 25.3000 -86.1000 HU 125 4 6 295
1919246N16299 1919 33 NA GM NOT_NAMED 1919-09-11 21:00:00 TS 25.4424 -86.4000 main 387 387 P_____________ AL021919 25.4424 -86.4000 HU 122 4 6 299
1919246N16299 1919 33 NA GM NOT_NAMED 1919-09-12 00:00:00 TS 25.6000 -86.7000 120 hurdat_atl main 424 422 O_____________ hurdat_atl AL021919 25.6000 -86.7000 HU 120 4 6 300
1919246N16299 1919 33 NA GM NOT_NAMED 1919-09-12 03:00:00 TS 25.7499 -86.9926 main 422 388 P_____________ AL021919 25.7499 -86.9926 HU 117 4 6 299
1919246N16299 1919 33 NA GM NOT_NAMED 1919-09-12 06:00:00 TS 25.9000 -87.3000 115 hurdat_atl main 388 366 O_____________ hurdat_atl AL021919 25.9000 -87.3000 HU 115 4 6 299
1919246N16299 1919 33 NA GM NOT_NAMED 1919-09-12 09:00:00 TS 26.0573 -87.6201 main 355 330 P_____________ AL021919 26.0573 -87.6201 HU 112 3 7 296
1919246N16299 1919 33 NA GM NOT_NAMED 1919-09-12 12:00:00 TS 26.2000 -88.0000 110 944 hurdat_atl main 330 309 O_____________ hurdat_atl AL021919 26.2000 -88.0000 HU 110 944 3 8 289
1919246N16299 1919 33 NA GM NOT_NAMED 1919-09-12 15:00:00 TS 26.3150 -88.4775 main 307 290 P_____________ AL021919 26.3150 -88.4775 HU 110 943 3 9 283
1919246N16299 1919 33 NA GM NOT_NAMED 1919-09-12 18:00:00 TS 26.4000 -89.0000 110 hurdat_atl main 290 280 I_____________ hurdat_atl AL021919 26.4000 -89.0000 HU 110 943 3 9 279
1919246N16299 1919 33 NA GM NOT_NAMED 1919-09-12 21:00:00 TS 26.4648 -89.5000 main 281 281 P_____________ AL021919 26.4648 -89.5000 HU 112 942 3 9 276
1919246N16299 1919 33 NA GM NOT_NAMED 1919-09-13 00:00:00 TS 26.5000 -90.0000 115 942 hurdat_atl main 290 290 O_____________ hurdat_atl AL021919 26.5000 -90.0000 HU 115 942 4 9 273
1919246N16299 1919 33 NA GM NOT_NAMED 1919-09-13 03:00:00 TS 26.5073 -90.5001 main 290 290 P_____________ AL021919 26.5073 -90.5001 HU 120 936 4 9 270
1919246N16299 1919 33 NA GM NOT_NAMED 1919-09-13 06:00:00 TS 26.5000 -91.0000 125 931 hurdat_atl main 290 290 O_____________ hurdat_atl AL021919 26.5000 -91.0000 HU 125 931 4 9 269
1919246N16299 1919 33 NA GM NOT_NAMED 1919-09-13 09:00:00 TS 26.4924 -91.5076 main 296 296 P_____________ AL021919 26.4924 -91.5076 HU 125 4 9 270
1919246N16299 1919 33 NA GM NOT_NAMED 1919-09-13 12:00:00 TS 26.5000 -92.0000 125 hurdat_atl main 309 309 O_____________ hurdat_atl AL021919 26.5000 -92.0000 HU 125 4 9 273
1919246N16299 1919 33 NA GM NOT_NAMED 1919-09-13 15:00:00 TS 26.5423 -92.4575 main 330 320 P_____________ AL021919 26.5423 -92.4575 HU 122 4 8 277
1919246N16299 1919 33 NA GM NOT_NAMED 1919-09-13 18:00:00 TS 26.6000 -92.9000 120 hurdat_atl main 329 326 O_____________ hurdat_atl AL021919 26.6000 -92.9000 HU 120 4 8 278
1919246N16299 1919 33 NA GM NOT_NAMED 1919-09-13 21:00:00 TS 26.6499 -93.3575 main 321 291 P_____________ AL021919 26.6499 -93.3575 HU 117 4 8 277
1919246N16299 1919 33 NA GM NOT_NAMED 1919-09-14 00:00:00 TS 26.7000 -93.8000 115 hurdat_atl main 291 272 O_____________ hurdat_atl AL021919 26.7000 -93.8000 HU 115 4 8 277
1919246N16299 1919 33 NA GM NOT_NAMED 1919-09-14 03:00:00 TS 26.7423 -94.2001 main 272 243 P_____________ AL021919 26.7423 -94.2001 HU 112 3 7 278
1919246N16299 1919 33 NA GM NOT_NAMED 1919-09-14 06:00:00 TS 26.8000 -94.6000 110 hurdat_atl main 243 213 O_____________ hurdat_atl AL021919 26.8000 -94.6000 HU 110 3 8 281
1919246N16299 1919 33 NA GM NOT_NAMED 1919-09-14 09:00:00 TS 26.8923 -95.0275 main 213 179 P_____________ AL021919 26.8923 -95.0275 HU 107 3 8 284
1919246N16299 1919 33 NA GM NOT_NAMED 1919-09-14 12:00:00 TS 27.0000 -95.5000 105 hurdat_atl main 179 135 O_____________ hurdat_atl AL021919 27.0000 -95.5000 HU 105 3 9 285
1919246N16299 1919 33 NA GM NOT_NAMED 1919-09-14 15:00:00 TS 27.1202 -96.0056 main 135 76 P_____________ AL021919 27.1202 -96.0056 HU 102 3 10 282
1919246N16299 1919 33 NA GM NOT_NAMED 1919-09-14 18:00:00 TS 27.2000 -96.6000 100 950 hurdat_atl main 76 14 O_____________ hurdat_atl AL021919 27.2000 -96.6000 HU 100 950 3 12 274
1919246N16299 1919 33 NA GM NOT_NAMED 1919-09-14 21:00:00 TS 27.2000 -97.3000 100 950 hurdat_atl main 14 0 O_____________ hurdat_atl AL021919 27.2000 -97.3000 L HU 100 950 3 13 279
1919246N16299 1919 33 NA NA NOT_NAMED 1919-09-15 00:00:00 TS 27.4000 -98.0000 75 hurdat_atl main 0 0 O_____________ hurdat_atl AL021919 27.4000 -98.0000 HU 75 1 13 287
1919246N16299 1919 33 NA NA NOT_NAMED 1919-09-15 03:00:00 TS 27.5998 -98.7400 main 0 0 P_____________ AL021919 27.5998 -98.7400 HU 65 1 14 287
1919246N16299 1919 33 NA NA NOT_NAMED 1919-09-15 06:00:00 TS 27.8000 -99.5000 55 hurdat_atl main 0 0 O_____________ hurdat_atl AL021919 27.8000 -99.5000 TS 55 0 14 286
1919246N16299 1919 33 NA NA NOT_NAMED 1919-09-15 09:00:00 TS 27.9772 -100.258 main 0 0 P_____________ AL021919 27.9772 -100.258 TS 47 0 14 287
1919246N16299 1919 33 NA NA NOT_NAMED 1919-09-15 12:00:00 TS 28.2000 -101.000 40 hurdat_atl main 0 0 O_____________ hurdat_atl AL021919 28.2000 -101.000 TS 40 0 14 293
1919246N16299 1919 33 NA NA NOT_NAMED 1919-09-15 15:00:00 TS 28.5195 -101.708 main 0 0 P_____________ AL021919 28.5195 -101.708 TS 37 0 14 300
1919246N16299 1919 33 NA NA NOT_NAMED 1919-09-15 18:00:00 TS 28.9000 -102.400 35 hurdat_atl main 0 0 O_____________ hurdat_atl AL021919 28.9000 -102.400 TS 35 0 15 302
1919246N16299 1919 33 NA NA NOT_NAMED 1919-09-15 21:00:00 TS 29.2849 -103.115 main 0 0 P_____________ AL021919 29.2849 -103.115 TS 32 -1 15 303
1919246N16299 1919 33 NA NA NOT_NAMED 1919-09-16 00:00:00 TS 29.7000 -103.800 30 hurdat_atl main 0 0 O_____________ hurdat_atl AL021919 29.7000 -103.800 TD 30 -1 14 307
1919246N16299 1919 33 NA NA NOT_NAMED 1919-09-16 03:00:00 TS 30.1422 -104.430 main 0 0 P_____________ AL021919 30.1422 -104.430 TD 27 -1 14 311
1919246N16299 1919 33 NA NA NOT_NAMED 1919-09-16 06:00:00 TS 30.6000 -105.000 25 hurdat_atl main 0 0 O_____________ hurdat_atl AL021919 30.6000 -105.000 TD 25 -1 13 314
1919246N16299 1919 33 NA NA NOT_NAMED 1919-09-16 09:00:00 TS 31.0528 -105.514 main 0 0 P_____________ AL021919 31.0528 -105.514 TD 22 -1 12 316
1919246N16299 1919 33 NA NA NOT_NAMED 1919-09-16 12:00:00 TS 31.5000 -106.000 20 hurdat_atl main 0 O_____________ hurdat_atl AL021919 31.5000 -106.000 TD 20 -1 12 317

IBTrACS Databaseについて

本データベースは、米国NOAAが公開する1842年以降の世界の熱帯低気圧のベストトラックデータアーカイブInternational Best Track Archive for Climate Stewardship (IBTrACS)を、ウェブで閲覧しやすい形式に変換したものです。

最終更新日:2021-11-26